sensor_id;sensor_type;location;lat;lon;timestamp;P1;durP1;ratioP1;P2;durP2;ratioP2
41687;SDS011;27371;42.686;23.362;2023-08-12T00:01:48;5.68;;;1.65;;
41687;SDS011;27371;42.686;23.362;2023-08-12T00:04:14;4.03;;;1.90;;
41687;SDS011;27371;42.686;23.362;2023-08-12T00:06:40;2.97;;;1.98;;
41687;SDS011;27371;42.686;23.362;2023-08-12T00:09:06;3.17;;;1.80;;
41687;SDS011;27371;42.686;23.362;2023-08-12T00:11:34;3.40;;;2.13;;
41687;SDS011;27371;42.686;23.362;2023-08-12T00:14:00;2.78;;;1.88;;
41687;SDS011;27371;42.686;23.362;2023-08-12T00:16:25;3.90;;;1.70;;
41687;SDS011;27371;42.686;23.362;2023-08-12T00:18:51;2.75;;;1.77;;
41687;SDS011;27371;42.686;23.362;2023-08-12T00:21:17;3.40;;;1.77;;
41687;SDS011;27371;42.686;23.362;2023-08-12T00:23:42;4.07;;;1.65;;
41687;SDS011;27371;42.686;23.362;2023-08-12T00:26:09;3.65;;;2.33;;
41687;SDS011;27371;42.686;23.362;2023-08-12T00:28:35;4.50;;;2.03;;
41687;SDS011;27371;42.686;23.362;2023-08-12T00:31:00;3.78;;;1.92;;
41687;SDS011;27371;42.686;23.362;2023-08-12T00:33:26;4.00;;;1.67;;
41687;SDS011;27371;42.686;23.362;2023-08-12T00:35:52;3.60;;;2.03;;
41687;SDS011;27371;42.686;23.362;2023-08-12T00:38:17;4.10;;;1.88;;
41687;SDS011;27371;42.686;23.362;2023-08-12T00:40:43;2.72;;;1.63;;
41687;SDS011;27371;42.686;23.362;2023-08-12T00:43:08;3.17;;;1.70;;
41687;SDS011;27371;42.686;23.362;2023-08-12T00:45:34;2.50;;;1.67;;
41687;SDS011;27371;42.686;23.362;2023-08-12T00:48:00;3.13;;;1.90;;
41687;SDS011;27371;42.686;23.362;2023-08-12T00:50:26;2.67;;;1.73;;
41687;SDS011;27371;42.686;23.362;2023-08-12T00:52:51;3.72;;;1.60;;
41687;SDS011;27371;42.686;23.362;2023-08-12T00:55:17;3.28;;;1.73;;
41687;SDS011;27371;42.686;23.362;2023-08-12T00:57:43;3.33;;;1.88;;
41687;SDS011;27371;42.686;23.362;2023-08-12T01:00:09;3.00;;;1.83;;
41687;SDS011;27371;42.686;23.362;2023-08-12T01:02:35;3.72;;;1.80;;
41687;SDS011;27371;42.686;23.362;2023-08-12T01:05:00;4.63;;;1.90;;
41687;SDS011;27371;42.686;23.362;2023-08-12T01:07:26;2.92;;;1.83;;
41687;SDS011;27371;42.686;23.362;2023-08-12T01:09:52;5.50;;;1.70;;
41687;SDS011;27371;42.686;23.362;2023-08-12T01:12:23;2.95;;;1.90;;
41687;SDS011;27371;42.686;23.362;2023-08-12T01:17:41;3.92;;;1.60;;
41687;SDS011;27371;42.686;23.362;2023-08-12T01:20:08;3.47;;;1.95;;
41687;SDS011;27371;42.686;23.362;2023-08-12T01:22:37;2.20;;;1.70;;
41687;SDS011;27371;42.686;23.362;2023-08-12T01:25:06;2.65;;;1.80;;
41687;SDS011;27371;42.686;23.362;2023-08-12T01:27:34;2.40;;;1.92;;
41687;SDS011;27371;42.686;23.362;2023-08-12T01:30:00;2.45;;;1.63;;
41687;SDS011;27371;42.686;23.362;2023-08-12T01:37:35;3.85;;;1.70;;
41687;SDS011;27371;42.686;23.362;2023-08-12T01:40:03;3.60;;;1.92;;
41687;SDS011;27371;42.686;23.362;2023-08-12T01:42:30;5.07;;;2.30;;
41687;SDS011;27371;42.686;23.362;2023-08-12T01:44:58;4.15;;;2.53;;
41687;SDS011;27371;42.686;23.362;2023-08-12T01:47:24;3.22;;;1.92;;
41687;SDS011;27371;42.686;23.362;2023-08-12T01:49:50;2.33;;;1.67;;
41687;SDS011;27371;42.686;23.362;2023-08-12T01:52:15;2.33;;;1.80;;
41687;SDS011;27371;42.686;23.362;2023-08-12T01:54:41;3.30;;;2.03;;
41687;SDS011;27371;42.686;23.362;2023-08-12T01:57:06;7.82;;;1.90;;
41687;SDS011;27371;42.686;23.362;2023-08-12T01:59:33;3.13;;;1.90;;
41687;SDS011;27371;42.686;23.362;2023-08-12T02:02:01;2.47;;;1.85;;
41687;SDS011;27371;42.686;23.362;2023-08-12T02:04:27;2.13;;;1.70;;
41687;SDS011;27371;42.686;23.362;2023-08-12T02:06:53;2.88;;;1.95;;
41687;SDS011;27371;42.686;23.362;2023-08-12T02:09:20;4.07;;;1.63;;
41687;SDS011;27371;42.686;23.362;2023-08-12T02:11:45;2.53;;;1.60;;
41687;SDS011;27371;42.686;23.362;2023-08-12T02:14:11;3.55;;;1.95;;
41687;SDS011;27371;42.686;23.362;2023-08-12T02:16:37;3.05;;;1.80;;
41687;SDS011;27371;42.686;23.362;2023-08-12T02:19:02;2.28;;;1.65;;
41687;SDS011;27371;42.686;23.362;2023-08-12T02:21:28;3.97;;;1.80;;
41687;SDS011;27371;42.686;23.362;2023-08-12T02:23:54;2.78;;;1.80;;
41687;SDS011;27371;42.686;23.362;2023-08-12T02:26:19;5.03;;;1.73;;
41687;SDS011;27371;42.686;23.362;2023-08-12T02:28:45;2.08;;;1.75;;
41687;SDS011;27371;42.686;23.362;2023-08-12T02:31:10;6.70;;;3.92;;
41687;SDS011;27371;42.686;23.362;2023-08-12T02:33:36;5.22;;;3.45;;
41687;SDS011;27371;42.686;23.362;2023-08-12T02:36:01;7.32;;;5.30;;
41687;SDS011;27371;42.686;23.362;2023-08-12T02:38:27;2.97;;;2.30;;
41687;SDS011;27371;42.686;23.362;2023-08-12T02:40:53;3.80;;;2.20;;
41687;SDS011;27371;42.686;23.362;2023-08-12T02:43:19;4.13;;;2.15;;
41687;SDS011;27371;42.686;23.362;2023-08-12T02:45:44;2.20;;;1.70;;
41687;SDS011;27371;42.686;23.362;2023-08-12T02:48:10;6.20;;;2.13;;
41687;SDS011;27371;42.686;23.362;2023-08-12T02:50:36;2.70;;;2.03;;
41687;SDS011;27371;42.686;23.362;2023-08-12T02:53:03;3.58;;;2.10;;
41687;SDS011;27371;42.686;23.362;2023-08-12T02:55:29;2.42;;;1.58;;
41687;SDS011;27371;42.686;23.362;2023-08-12T02:57:56;3.63;;;1.60;;
41687;SDS011;27371;42.686;23.362;2023-08-12T03:00:22;2.95;;;1.80;;
41687;SDS011;27371;42.686;23.362;2023-08-12T03:02:48;2.60;;;1.88;;
41687;SDS011;27371;42.686;23.362;2023-08-12T03:05:13;3.75;;;1.80;;
41687;SDS011;27371;42.686;23.362;2023-08-12T03:07:39;4.22;;;1.95;;
41687;SDS011;27371;42.686;23.362;2023-08-12T03:10:05;2.58;;;2.00;;
41687;SDS011;27371;42.686;23.362;2023-08-12T03:12:31;3.70;;;2.00;;
41687;SDS011;27371;42.686;23.362;2023-08-12T03:14:56;3.85;;;2.17;;
41687;SDS011;27371;42.686;23.362;2023-08-12T03:17:22;3.13;;;2.10;;
41687;SDS011;27371;42.686;23.362;2023-08-12T03:19:47;3.22;;;2.05;;
41687;SDS011;27371;42.686;23.362;2023-08-12T03:22:14;1.95;;;1.67;;
41687;SDS011;27371;42.686;23.362;2023-08-12T03:24:39;3.38;;;2.13;;
41687;SDS011;27371;42.686;23.362;2023-08-12T03:27:05;2.88;;;1.90;;
41687;SDS011;27371;42.686;23.362;2023-08-12T03:29:30;6.40;;;2.17;;
41687;SDS011;27371;42.686;23.362;2023-08-12T03:31:56;5.20;;;2.20;;
41687;SDS011;27371;42.686;23.362;2023-08-12T03:34:22;3.97;;;2.13;;
41687;SDS011;27371;42.686;23.362;2023-08-12T03:36:47;6.72;;;2.50;;
41687;SDS011;27371;42.686;23.362;2023-08-12T03:39:14;3.72;;;2.58;;
41687;SDS011;27371;42.686;23.362;2023-08-12T03:41:39;3.63;;;2.45;;
41687;SDS011;27371;42.686;23.362;2023-08-12T03:44:05;3.83;;;2.50;;
41687;SDS011;27371;42.686;23.362;2023-08-12T03:46:30;4.18;;;2.65;;
41687;SDS011;27371;42.686;23.362;2023-08-12T03:48:56;3.92;;;2.75;;
41687;SDS011;27371;42.686;23.362;2023-08-12T03:51:22;5.53;;;2.88;;
41687;SDS011;27371;42.686;23.362;2023-08-12T03:53:47;4.28;;;3.08;;
41687;SDS011;27371;42.686;23.362;2023-08-12T03:56:15;5.63;;;3.30;;
41687;SDS011;27371;42.686;23.362;2023-08-12T03:58:44;5.85;;;2.80;;
41687;SDS011;27371;42.686;23.362;2023-08-12T04:01:10;4.60;;;3.10;;
41687;SDS011;27371;42.686;23.362;2023-08-12T04:03:35;4.22;;;3.17;;
41687;SDS011;27371;42.686;23.362;2023-08-12T04:06:01;3.83;;;2.95;;
41687;SDS011;27371;42.686;23.362;2023-08-12T04:08:28;5.10;;;3.03;;
41687;SDS011;27371;42.686;23.362;2023-08-12T04:10:54;6.63;;;2.47;;
41687;SDS011;27371;42.686;23.362;2023-08-12T04:13:19;6.43;;;2.70;;
41687;SDS011;27371;42.686;23.362;2023-08-12T04:15:48;6.75;;;2.67;;
41687;SDS011;27371;42.686;23.362;2023-08-12T04:18:15;6.72;;;2.83;;
41687;SDS011;27371;42.686;23.362;2023-08-12T04:20:40;9.32;;;3.47;;
41687;SDS011;27371;42.686;23.362;2023-08-12T04:23:06;4.82;;;2.70;;
41687;SDS011;27371;42.686;23.362;2023-08-12T04:25:31;7.25;;;2.85;;
41687;SDS011;27371;42.686;23.362;2023-08-12T04:27:57;5.45;;;2.80;;
41687;SDS011;27371;42.686;23.362;2023-08-12T04:30:23;14.98;;;2.97;;
41687;SDS011;27371;42.686;23.362;2023-08-12T04:32:49;4.38;;;2.28;;
41687;SDS011;27371;42.686;23.362;2023-08-12T04:35:14;5.50;;;2.45;;
41687;SDS011;27371;42.686;23.362;2023-08-12T04:37:40;4.13;;;2.13;;
41687;SDS011;27371;42.686;23.362;2023-08-12T04:40:06;5.60;;;2.13;;
41687;SDS011;27371;42.686;23.362;2023-08-12T04:42:34;3.63;;;2.10;;
41687;SDS011;27371;42.686;23.362;2023-08-12T04:45:00;4.53;;;2.08;;
41687;SDS011;27371;42.686;23.362;2023-08-12T04:47:25;5.25;;;2.30;;
41687;SDS011;27371;42.686;23.362;2023-08-12T04:49:51;3.88;;;2.17;;
41687;SDS011;27371;42.686;23.362;2023-08-12T04:52:17;3.95;;;2.00;;
41687;SDS011;27371;42.686;23.362;2023-08-12T04:54:43;4.15;;;2.22;;
41687;SDS011;27371;42.686;23.362;2023-08-12T04:57:08;6.03;;;2.28;;
41687;SDS011;27371;42.686;23.362;2023-08-12T04:59:34;7.82;;;2.08;;
41687;SDS011;27371;42.686;23.362;2023-08-12T05:01:59;4.50;;;1.90;;
41687;SDS011;27371;42.686;23.362;2023-08-12T05:04:24;7.70;;;2.03;;
41687;SDS011;27371;42.686;23.362;2023-08-12T05:06:50;5.28;;;1.80;;
41687;SDS011;27371;42.686;23.362;2023-08-12T05:09:15;6.53;;;1.75;;
41687;SDS011;27371;42.686;23.362;2023-08-12T05:11:41;3.30;;;1.88;;
41687;SDS011;27371;42.686;23.362;2023-08-12T05:14:06;4.82;;;1.80;;
41687;SDS011;27371;42.686;23.362;2023-08-12T05:16:33;3.85;;;2.15;;
41687;SDS011;27371;42.686;23.362;2023-08-12T05:18:58;3.22;;;1.90;;
41687;SDS011;27371;42.686;23.362;2023-08-12T05:21:24;4.43;;;1.80;;
41687;SDS011;27371;42.686;23.362;2023-08-12T05:23:49;3.67;;;1.65;;
41687;SDS011;27371;42.686;23.362;2023-08-12T05:26:15;5.45;;;1.80;;
41687;SDS011;27371;42.686;23.362;2023-08-12T05:28:40;4.00;;;1.65;;
41687;SDS011;27371;42.686;23.362;2023-08-12T05:31:07;2.03;;;1.55;;
41687;SDS011;27371;42.686;23.362;2023-08-12T05:33:32;5.10;;;2.00;;
41687;SDS011;27371;42.686;23.362;2023-08-12T05:35:58;3.30;;;2.15;;
41687;SDS011;27371;42.686;23.362;2023-08-12T05:38:23;2.65;;;1.63;;
41687;SDS011;27371;42.686;23.362;2023-08-12T05:40:49;3.63;;;1.70;;
41687;SDS011;27371;42.686;23.362;2023-08-12T05:43:14;3.58;;;1.77;;
41687;SDS011;27371;42.686;23.362;2023-08-12T05:45:40;6.03;;;1.83;;
41687;SDS011;27371;42.686;23.362;2023-08-12T05:48:06;3.63;;;1.98;;
41687;SDS011;27371;42.686;23.362;2023-08-12T05:50:32;2.85;;;1.48;;
41687;SDS011;27371;42.686;23.362;2023-08-12T05:52:58;4.85;;;1.65;;
41687;SDS011;27371;42.686;23.362;2023-08-12T05:55:24;4.95;;;2.13;;
41687;SDS011;27371;42.686;23.362;2023-08-12T05:57:49;6.00;;;1.98;;
41687;SDS011;27371;42.686;23.362;2023-08-12T06:00:15;2.75;;;1.73;;
41687;SDS011;27371;42.686;23.362;2023-08-12T06:02:40;2.88;;;1.77;;
41687;SDS011;27371;42.686;23.362;2023-08-12T06:05:06;10.00;;;2.28;;
41687;SDS011;27371;42.686;23.362;2023-08-12T06:07:32;3.22;;;1.70;;
41687;SDS011;27371;42.686;23.362;2023-08-12T06:09:57;3.50;;;2.35;;
41687;SDS011;27371;42.686;23.362;2023-08-12T06:12:23;3.60;;;1.95;;
41687;SDS011;27371;42.686;23.362;2023-08-12T06:14:48;5.00;;;2.00;;
41687;SDS011;27371;42.686;23.362;2023-08-12T06:17:14;4.65;;;2.15;;
41687;SDS011;27371;42.686;23.362;2023-08-12T06:19:40;5.53;;;1.58;;
41687;SDS011;27371;42.686;23.362;2023-08-12T06:22:05;6.95;;;2.30;;
41687;SDS011;27371;42.686;23.362;2023-08-12T06:24:31;6.13;;;2.03;;
41687;SDS011;27371;42.686;23.362;2023-08-12T06:26:56;5.97;;;2.33;;
41687;SDS011;27371;42.686;23.362;2023-08-12T06:29:22;3.22;;;1.58;;
41687;SDS011;27371;42.686;23.362;2023-08-12T06:31:48;3.13;;;1.40;;
41687;SDS011;27371;42.686;23.362;2023-08-12T06:34:13;3.88;;;1.77;;
41687;SDS011;27371;42.686;23.362;2023-08-12T06:36:39;4.88;;;1.83;;
41687;SDS011;27371;42.686;23.362;2023-08-12T06:39:04;6.20;;;1.67;;
41687;SDS011;27371;42.686;23.362;2023-08-12T06:41:30;4.75;;;1.80;;
41687;SDS011;27371;42.686;23.362;2023-08-12T06:43:55;5.63;;;2.15;;
41687;SDS011;27371;42.686;23.362;2023-08-12T06:46:21;3.55;;;1.98;;
41687;SDS011;27371;42.686;23.362;2023-08-12T06:48:46;3.88;;;2.08;;
41687;SDS011;27371;42.686;23.362;2023-08-12T06:51:12;5.85;;;2.08;;
41687;SDS011;27371;42.686;23.362;2023-08-12T06:53:38;3.03;;;1.85;;
41687;SDS011;27371;42.686;23.362;2023-08-12T06:56:04;2.85;;;1.98;;
41687;SDS011;27371;42.686;23.362;2023-08-12T06:58:30;5.88;;;2.50;;
41687;SDS011;27371;42.686;23.362;2023-08-12T07:00:56;5.47;;;2.00;;
41687;SDS011;27371;42.686;23.362;2023-08-12T07:03:24;3.15;;;2.05;;
41687;SDS011;27371;42.686;23.362;2023-08-12T07:05:49;5.28;;;2.10;;
41687;SDS011;27371;42.686;23.362;2023-08-12T07:08:15;5.70;;;2.47;;
41687;SDS011;27371;42.686;23.362;2023-08-12T07:10:41;3.53;;;1.88;;
41687;SDS011;27371;42.686;23.362;2023-08-12T07:13:07;4.60;;;2.20;;
41687;SDS011;27371;42.686;23.362;2023-08-12T07:15:32;5.82;;;2.15;;
41687;SDS011;27371;42.686;23.362;2023-08-12T07:17:58;4.20;;;2.10;;
41687;SDS011;27371;42.686;23.362;2023-08-12T07:20:26;5.05;;;2.10;;
41687;SDS011;27371;42.686;23.362;2023-08-12T07:22:53;6.43;;;1.90;;
41687;SDS011;27371;42.686;23.362;2023-08-12T07:25:18;2.75;;;1.55;;
41687;SDS011;27371;42.686;23.362;2023-08-12T07:27:43;3.33;;;1.90;;
41687;SDS011;27371;42.686;23.362;2023-08-12T07:30:09;3.90;;;1.85;;
41687;SDS011;27371;42.686;23.362;2023-08-12T07:32:38;5.45;;;1.90;;
41687;SDS011;27371;42.686;23.362;2023-08-12T07:35:04;3.35;;;2.10;;
41687;SDS011;27371;42.686;23.362;2023-08-12T07:37:31;6.25;;;1.67;;
41687;SDS011;27371;42.686;23.362;2023-08-12T07:39:57;3.65;;;1.92;;
41687;SDS011;27371;42.686;23.362;2023-08-12T07:42:22;2.90;;;1.55;;
41687;SDS011;27371;42.686;23.362;2023-08-12T07:44:48;4.35;;;1.48;;
41687;SDS011;27371;42.686;23.362;2023-08-12T07:47:13;4.97;;;1.80;;
41687;SDS011;27371;42.686;23.362;2023-08-12T07:49:40;3.63;;;2.05;;
41687;SDS011;27371;42.686;23.362;2023-08-12T07:52:06;3.05;;;1.83;;
41687;SDS011;27371;42.686;23.362;2023-08-12T07:54:32;4.28;;;1.88;;
41687;SDS011;27371;42.686;23.362;2023-08-12T07:56:57;3.03;;;1.55;;
41687;SDS011;27371;42.686;23.362;2023-08-12T07:59:23;5.70;;;2.08;;
41687;SDS011;27371;42.686;23.362;2023-08-12T08:01:48;9.38;;;2.47;;
41687;SDS011;27371;42.686;23.362;2023-08-12T08:04:14;5.85;;;2.40;;
41687;SDS011;27371;42.686;23.362;2023-08-12T08:06:39;2.97;;;1.80;;
41687;SDS011;27371;42.686;23.362;2023-08-12T08:09:05;6.43;;;2.55;;
41687;SDS011;27371;42.686;23.362;2023-08-12T08:11:31;3.95;;;2.10;;
41687;SDS011;27371;42.686;23.362;2023-08-12T08:13:57;3.92;;;1.60;;
41687;SDS011;27371;42.686;23.362;2023-08-12T08:16:23;4.28;;;2.10;;
41687;SDS011;27371;42.686;23.362;2023-08-12T08:18:49;4.15;;;1.65;;
41687;SDS011;27371;42.686;23.362;2023-08-12T08:21:14;4.72;;;1.80;;
41687;SDS011;27371;42.686;23.362;2023-08-12T08:23:40;2.88;;;1.50;;
41687;SDS011;27371;42.686;23.362;2023-08-12T08:26:06;4.10;;;2.00;;
41687;SDS011;27371;42.686;23.362;2023-08-12T08:28:32;6.55;;;1.95;;
41687;SDS011;27371;42.686;23.362;2023-08-12T08:30:58;4.20;;;1.50;;
41687;SDS011;27371;42.686;23.362;2023-08-12T08:33:24;10.15;;;1.73;;
41687;SDS011;27371;42.686;23.362;2023-08-12T08:35:50;4.65;;;2.30;;
41687;SDS011;27371;42.686;23.362;2023-08-12T08:38:16;2.58;;;1.65;;
41687;SDS011;27371;42.686;23.362;2023-08-12T08:40:41;2.08;;;1.40;;
41687;SDS011;27371;42.686;23.362;2023-08-12T08:43:08;2.25;;;1.35;;
41687;SDS011;27371;42.686;23.362;2023-08-12T08:45:33;2.67;;;1.67;;
41687;SDS011;27371;42.686;23.362;2023-08-12T08:48:00;3.70;;;1.70;;
41687;SDS011;27371;42.686;23.362;2023-08-12T08:50:30;2.70;;;1.40;;
41687;SDS011;27371;42.686;23.362;2023-08-12T08:52:56;4.53;;;1.58;;
41687;SDS011;27371;42.686;23.362;2023-08-12T08:55:22;3.75;;;1.50;;
41687;SDS011;27371;42.686;23.362;2023-08-12T08:57:48;2.28;;;1.80;;
41687;SDS011;27371;42.686;23.362;2023-08-12T09:00:15;4.75;;;2.10;;
41687;SDS011;27371;42.686;23.362;2023-08-12T09:02:43;3.58;;;1.65;;
41687;SDS011;27371;42.686;23.362;2023-08-12T09:05:14;5.50;;;1.80;;
41687;SDS011;27371;42.686;23.362;2023-08-12T09:07:41;3.05;;;2.05;;
41687;SDS011;27371;42.686;23.362;2023-08-12T09:10:08;5.63;;;1.75;;
41687;SDS011;27371;42.686;23.362;2023-08-12T09:12:34;2.03;;;1.35;;
41687;SDS011;27371;42.686;23.362;2023-08-12T09:15:01;3.90;;;1.42;;
41687;SDS011;27371;42.686;23.362;2023-08-12T09:17:27;1.98;;;1.38;;
41687;SDS011;27371;42.686;23.362;2023-08-12T09:19:53;3.33;;;1.95;;
41687;SDS011;27371;42.686;23.362;2023-08-12T09:22:18;2.97;;;1.67;;
41687;SDS011;27371;42.686;23.362;2023-08-12T09:24:44;4.50;;;1.65;;
41687;SDS011;27371;42.686;23.362;2023-08-12T09:27:09;2.90;;;2.00;;
41687;SDS011;27371;42.686;23.362;2023-08-12T09:29:35;5.75;;;2.47;;
41687;SDS011;27371;42.686;23.362;2023-08-12T09:32:10;3.47;;;2.20;;
41687;SDS011;27371;42.686;23.362;2023-08-12T09:34:37;3.58;;;1.92;;
41687;SDS011;27371;42.686;23.362;2023-08-12T09:37:13;3.95;;;2.28;;
41687;SDS011;27371;42.686;23.362;2023-08-12T09:39:39;5.25;;;2.28;;
41687;SDS011;27371;42.686;23.362;2023-08-12T09:42:05;3.90;;;1.58;;
41687;SDS011;27371;42.686;23.362;2023-08-12T09:44:34;3.28;;;1.40;;
41687;SDS011;27371;42.686;23.362;2023-08-12T09:47:00;3.13;;;1.40;;
41687;SDS011;27371;42.686;23.362;2023-08-12T09:49:26;2.33;;;1.20;;
41687;SDS011;27371;42.686;23.362;2023-08-12T09:51:53;1.65;;;1.20;;
41687;SDS011;27371;42.686;23.362;2023-08-12T09:54:18;2.53;;;1.60;;
41687;SDS011;27371;42.686;23.362;2023-08-12T09:56:47;4.65;;;1.75;;
41687;SDS011;27371;42.686;23.362;2023-08-12T09:59:15;2.50;;;1.15;;
41687;SDS011;27371;42.686;23.362;2023-08-12T10:01:45;4.03;;;1.20;;
41687;SDS011;27371;42.686;23.362;2023-08-12T10:04:12;2.25;;;1.40;;
41687;SDS011;27371;42.686;23.362;2023-08-12T10:06:42;2.08;;;1.27;;
41687;SDS011;27371;42.686;23.362;2023-08-12T10:09:07;2.55;;;1.60;;
41687;SDS011;27371;42.686;23.362;2023-08-12T10:11:35;4.60;;;1.60;;
41687;SDS011;27371;42.686;23.362;2023-08-12T10:14:01;4.75;;;2.00;;
41687;SDS011;27371;42.686;23.362;2023-08-12T10:16:29;5.15;;;1.60;;
41687;SDS011;27371;42.686;23.362;2023-08-12T10:18:55;5.82;;;1.65;;
41687;SDS011;27371;42.686;23.362;2023-08-12T10:21:22;2.85;;;1.40;;
41687;SDS011;27371;42.686;23.362;2023-08-12T10:23:48;2.90;;;1.45;;
41687;SDS011;27371;42.686;23.362;2023-08-12T10:26:15;2.10;;;1.60;;
41687;SDS011;27371;42.686;23.362;2023-08-12T10:28:43;4.60;;;1.40;;
41687;SDS011;27371;42.686;23.362;2023-08-12T10:31:10;2.45;;;1.40;;
41687;SDS011;27371;42.686;23.362;2023-08-12T10:33:39;2.85;;;1.20;;
41687;SDS011;27371;42.686;23.362;2023-08-12T10:36:06;1.70;;;1.30;;
41687;SDS011;27371;42.686;23.362;2023-08-12T10:38:32;4.47;;;1.83;;
41687;SDS011;27371;42.686;23.362;2023-08-12T10:41:18;2.90;;;1.92;;
41687;SDS011;27371;42.686;23.362;2023-08-12T10:46:51;3.20;;;1.95;;
41687;SDS011;27371;42.686;23.362;2023-08-12T10:49:15;1.92;;;1.08;;
41687;SDS011;27371;42.686;23.362;2023-08-12T10:51:44;1.30;;;0.98;;
41687;SDS011;27371;42.686;23.362;2023-08-12T10:54:20;2.88;;;1.40;;
41687;SDS011;27371;42.686;23.362;2023-08-12T11:05:20;3.67;;;1.50;;
41687;SDS011;27371;42.686;23.362;2023-08-12T11:12:39;2.55;;;1.30;;
41687;SDS011;27371;42.686;23.362;2023-08-12T11:15:06;3.58;;;1.35;;
41687;SDS011;27371;42.686;23.362;2023-08-12T11:17:38;1.77;;;1.23;;
41687;SDS011;27371;42.686;23.362;2023-08-12T11:20:05;2.10;;;1.20;;
41687;SDS011;27371;42.686;23.362;2023-08-12T11:22:38;1.65;;;0.90;;
41687;SDS011;27371;42.686;23.362;2023-08-12T11:25:08;1.10;;;0.80;;
41687;SDS011;27371;42.686;23.362;2023-08-12T11:27:42;3.38;;;1.35;;
41687;SDS011;27371;42.686;23.362;2023-08-12T11:30:10;3.83;;;1.23;;
41687;SDS011;27371;42.686;23.362;2023-08-12T11:32:37;3.42;;;2.00;;
41687;SDS011;27371;42.686;23.362;2023-08-12T11:35:04;4.10;;;1.40;;
41687;SDS011;27371;42.686;23.362;2023-08-12T11:37:31;1.95;;;1.00;;
41687;SDS011;27371;42.686;23.362;2023-08-12T11:39:57;3.45;;;1.20;;
41687;SDS011;27371;42.686;23.362;2023-08-12T11:42:22;4.72;;;1.15;;
41687;SDS011;27371;42.686;23.362;2023-08-12T11:44:48;2.63;;;0.95;;
41687;SDS011;27371;42.686;23.362;2023-08-12T11:47:14;1.40;;;0.80;;
41687;SDS011;27371;42.686;23.362;2023-08-12T11:49:39;1.15;;;1.00;;
41687;SDS011;27371;42.686;23.362;2023-08-12T11:52:05;7.22;;;1.77;;
41687;SDS011;27371;42.686;23.362;2023-08-12T11:54:31;2.45;;;1.10;;
41687;SDS011;27371;42.686;23.362;2023-08-12T11:56:58;1.10;;;0.80;;
41687;SDS011;27371;42.686;23.362;2023-08-12T11:59:23;2.80;;;0.73;;
41687;SDS011;27371;42.686;23.362;2023-08-12T12:01:51;1.55;;;1.00;;
41687;SDS011;27371;42.686;23.362;2023-08-12T12:04:16;1.40;;;0.68;;
41687;SDS011;27371;42.686;23.362;2023-08-12T12:06:45;0.95;;;0.88;;
41687;SDS011;27371;42.686;23.362;2023-08-12T12:09:11;2.47;;;1.02;;
41687;SDS011;27371;42.686;23.362;2023-08-12T12:11:39;2.10;;;1.30;;
41687;SDS011;27371;42.686;23.362;2023-08-12T12:14:08;1.92;;;1.10;;
41687;SDS011;27371;42.686;23.362;2023-08-12T12:16:38;1.85;;;1.20;;
41687;SDS011;27371;42.686;23.362;2023-08-12T12:19:05;1.70;;;1.00;;
41687;SDS011;27371;42.686;23.362;2023-08-12T12:21:45;3.10;;;1.10;;
41687;SDS011;27371;42.686;23.362;2023-08-12T12:24:11;2.20;;;1.00;;
41687;SDS011;27371;42.686;23.362;2023-08-12T12:26:37;2.05;;;1.20;;
41687;SDS011;27371;42.686;23.362;2023-08-12T12:29:03;1.33;;;0.90;;
41687;SDS011;27371;42.686;23.362;2023-08-12T12:31:34;1.60;;;1.15;;
41687;SDS011;27371;42.686;23.362;2023-08-12T12:34:04;2.15;;;1.30;;
41687;SDS011;27371;42.686;23.362;2023-08-12T12:36:30;3.25;;;1.40;;
41687;SDS011;27371;42.686;23.362;2023-08-12T12:38:56;5.18;;;1.20;;
41687;SDS011;27371;42.686;23.362;2023-08-12T12:41:22;3.35;;;1.27;;
41687;SDS011;27371;42.686;23.362;2023-08-12T12:43:50;2.47;;;1.02;;
41687;SDS011;27371;42.686;23.362;2023-08-12T12:46:16;1.52;;;1.10;;
41687;SDS011;27371;42.686;23.362;2023-08-12T12:48:42;1.40;;;1.02;;
41687;SDS011;27371;42.686;23.362;2023-08-12T12:51:08;2.50;;;1.30;;
41687;SDS011;27371;42.686;23.362;2023-08-12T12:53:34;1.70;;;1.20;;
41687;SDS011;27371;42.686;23.362;2023-08-12T12:55:59;2.10;;;0.98;;
41687;SDS011;27371;42.686;23.362;2023-08-12T12:58:32;2.45;;;0.77;;
41687;SDS011;27371;42.686;23.362;2023-08-12T13:00:58;2.75;;;1.33;;
41687;SDS011;27371;42.686;23.362;2023-08-12T13:03:25;3.10;;;1.38;;
41687;SDS011;27371;42.686;23.362;2023-08-12T13:05:51;2.63;;;1.60;;
41687;SDS011;27371;42.686;23.362;2023-08-12T13:08:17;5.20;;;1.45;;
41687;SDS011;27371;42.686;23.362;2023-08-12T13:10:42;2.30;;;1.23;;
41687;SDS011;27371;42.686;23.362;2023-08-12T13:13:08;1.88;;;1.00;;
41687;SDS011;27371;42.686;23.362;2023-08-12T13:15:33;1.98;;;1.10;;
41687;SDS011;27371;42.686;23.362;2023-08-12T13:18:00;2.20;;;1.20;;
41687;SDS011;27371;42.686;23.362;2023-08-12T13:20:25;3.28;;;1.13;;
41687;SDS011;27371;42.686;23.362;2023-08-12T13:22:51;4.05;;;1.40;;
41687;SDS011;27371;42.686;23.362;2023-08-12T13:25:16;2.03;;;0.95;;
41687;SDS011;27371;42.686;23.362;2023-08-12T13:27:42;2.75;;;1.05;;
41687;SDS011;27371;42.686;23.362;2023-08-12T13:30:08;2.15;;;1.00;;
41687;SDS011;27371;42.686;23.362;2023-08-12T13:32:36;1.98;;;0.93;;
41687;SDS011;27371;42.686;23.362;2023-08-12T13:35:02;0.82;;;0.70;;
41687;SDS011;27371;42.686;23.362;2023-08-12T13:37:28;1.10;;;0.90;;
41687;SDS011;27371;42.686;23.362;2023-08-12T13:39:54;2.75;;;0.80;;
41687;SDS011;27371;42.686;23.362;2023-08-12T13:42:20;3.13;;;1.08;;
41687;SDS011;27371;42.686;23.362;2023-08-12T13:44:45;1.63;;;0.80;;
41687;SDS011;27371;42.686;23.362;2023-08-12T13:47:11;2.28;;;1.08;;
41687;SDS011;27371;42.686;23.362;2023-08-12T13:49:36;6.07;;;1.50;;
41687;SDS011;27371;42.686;23.362;2023-08-12T13:52:02;4.93;;;2.40;;
41687;SDS011;27371;42.686;23.362;2023-08-12T13:54:27;3.80;;;1.85;;
41687;SDS011;27371;42.686;23.362;2023-08-12T13:56:53;3.40;;;2.08;;
41687;SDS011;27371;42.686;23.362;2023-08-12T13:59:18;4.72;;;2.40;;
41687;SDS011;27371;42.686;23.362;2023-08-12T14:01:44;4.07;;;1.33;;
41687;SDS011;27371;42.686;23.362;2023-08-12T14:04:10;1.67;;;0.95;;
41687;SDS011;27371;42.686;23.362;2023-08-12T14:06:35;3.10;;;1.00;;
41687;SDS011;27371;42.686;23.362;2023-08-12T14:09:01;2.75;;;1.08;;
41687;SDS011;27371;42.686;23.362;2023-08-12T14:11:27;1.83;;;0.98;;
41687;SDS011;27371;42.686;23.362;2023-08-12T14:13:52;2.25;;;0.88;;
41687;SDS011;27371;42.686;23.362;2023-08-12T14:16:18;1.70;;;0.98;;
41687;SDS011;27371;42.686;23.362;2023-08-12T14:18:44;1.60;;;1.10;;
41687;SDS011;27371;42.686;23.362;2023-08-12T14:21:09;2.25;;;1.20;;
41687;SDS011;27371;42.686;23.362;2023-08-12T14:23:35;1.48;;;1.08;;
41687;SDS011;27371;42.686;23.362;2023-08-12T14:26:01;1.67;;;0.88;;
41687;SDS011;27371;42.686;23.362;2023-08-12T14:28:26;2.17;;;1.00;;
41687;SDS011;27371;42.686;23.362;2023-08-12T14:30:53;2.20;;;0.80;;
41687;SDS011;27371;42.686;23.362;2023-08-12T14:33:19;3.40;;;0.95;;
41687;SDS011;27371;42.686;23.362;2023-08-12T14:35:44;5.25;;;1.10;;
41687;SDS011;27371;42.686;23.362;2023-08-12T14:38:10;1.98;;;1.00;;
41687;SDS011;27371;42.686;23.362;2023-08-12T14:40:35;1.58;;;0.80;;
41687;SDS011;27371;42.686;23.362;2023-08-12T14:43:01;2.65;;;1.00;;
41687;SDS011;27371;42.686;23.362;2023-08-12T14:45:26;2.00;;;1.20;;
41687;SDS011;27371;42.686;23.362;2023-08-12T14:47:51;1.63;;;0.98;;
41687;SDS011;27371;42.686;23.362;2023-08-12T14:50:17;1.67;;;0.90;;
41687;SDS011;27371;42.686;23.362;2023-08-12T14:52:43;2.88;;;1.00;;